sensor_id;sensor_type;location;lat;lon;timestamp;P1;durP1;ratioP1;P2;durP2;ratioP2
21507;SDS011;10915;54.352;9.074;2024-02-21T00:01:41;34.07;;;10.87;;
21507;SDS011;10915;54.352;9.074;2024-02-21T00:04:09;33.57;;;10.57;;
21507;SDS011;10915;54.352;9.074;2024-02-21T00:06:35;29.57;;;11.00;;
21507;SDS011;10915;54.352;9.074;2024-02-21T00:09:01;32.90;;;12.50;;
21507;SDS011;10915;54.352;9.074;2024-02-21T00:11:28;35.53;;;11.17;;
21507;SDS011;10915;54.352;9.074;2024-02-21T00:13:54;34.73;;;11.47;;
21507;SDS011;10915;54.352;9.074;2024-02-21T00:16:20;34.57;;;11.20;;
21507;SDS011;10915;54.352;9.074;2024-02-21T00:18:46;36.37;;;11.63;;
21507;SDS011;10915;54.352;9.074;2024-02-21T00:21:11;43.27;;;12.30;;
21507;SDS011;10915;54.352;9.074;2024-02-21T00:23:42;30.27;;;11.57;;
21507;SDS011;10915;54.352;9.074;2024-02-21T00:26:11;32.43;;;11.77;;
21507;SDS011;10915;54.352;9.074;2024-02-21T00:28:38;32.70;;;11.00;;
21507;SDS011;10915;54.352;9.074;2024-02-21T00:31:04;31.63;;;12.33;;
21507;SDS011;10915;54.352;9.074;2024-02-21T00:33:30;32.30;;;11.13;;
21507;SDS011;10915;54.352;9.074;2024-02-21T00:35:56;40.57;;;12.10;;
21507;SDS011;10915;54.352;9.074;2024-02-21T00:38:21;30.87;;;11.23;;
21507;SDS011;10915;54.352;9.074;2024-02-21T00:40:47;31.80;;;11.77;;
21507;SDS011;10915;54.352;9.074;2024-02-21T00:43:14;29.60;;;11.17;;
21507;SDS011;10915;54.352;9.074;2024-02-21T00:45:40;28.07;;;9.77;;
21507;SDS011;10915;54.352;9.074;2024-02-21T00:48:05;33.20;;;10.70;;
21507;SDS011;10915;54.352;9.074;2024-02-21T00:50:31;30.87;;;10.50;;
21507;SDS011;10915;54.352;9.074;2024-02-21T00:52:57;32.13;;;11.30;;
21507;SDS011;10915;54.352;9.074;2024-02-21T00:55:23;34.03;;;10.63;;
21507;SDS011;10915;54.352;9.074;2024-02-21T00:57:49;33.83;;;10.17;;
21507;SDS011;10915;54.352;9.074;2024-02-21T01:00:15;26.83;;;10.10;;
21507;SDS011;10915;54.352;9.074;2024-02-21T01:02:40;28.97;;;10.90;;
21507;SDS011;10915;54.352;9.074;2024-02-21T01:05:06;30.00;;;11.10;;
21507;SDS011;10915;54.352;9.074;2024-02-21T01:07:32;31.53;;;11.27;;
21507;SDS011;10915;54.352;9.074;2024-02-21T01:09:58;29.87;;;10.90;;
21507;SDS011;10915;54.352;9.074;2024-02-21T01:12:24;29.97;;;10.73;;
21507;SDS011;10915;54.352;9.074;2024-02-21T01:14:50;32.83;;;10.03;;
21507;SDS011;10915;54.352;9.074;2024-02-21T01:17:16;22.87;;;9.37;;
21507;SDS011;10915;54.352;9.074;2024-02-21T01:19:42;27.77;;;8.57;;
21507;SDS011;10915;54.352;9.074;2024-02-21T01:22:08;28.57;;;10.83;;
21507;SDS011;10915;54.352;9.074;2024-02-21T01:24:34;33.83;;;10.17;;
21507;SDS011;10915;54.352;9.074;2024-02-21T01:27:00;36.63;;;9.87;;
21507;SDS011;10915;54.352;9.074;2024-02-21T01:29:25;33.97;;;11.27;;
21507;SDS011;10915;54.352;9.074;2024-02-21T01:31:51;38.57;;;11.03;;
21507;SDS011;10915;54.352;9.074;2024-02-21T01:34:26;42.30;;;11.27;;
21507;SDS011;10915;54.352;9.074;2024-02-21T01:36:52;32.57;;;11.17;;
21507;SDS011;10915;54.352;9.074;2024-02-21T01:39:17;32.03;;;11.37;;
21507;SDS011;10915;54.352;9.074;2024-02-21T01:41:43;40.97;;;11.60;;
21507;SDS011;10915;54.352;9.074;2024-02-21T01:44:09;43.53;;;11.97;;
21507;SDS011;10915;54.352;9.074;2024-02-21T01:46:35;34.20;;;10.63;;
21507;SDS011;10915;54.352;9.074;2024-02-21T01:49:02;44.07;;;10.63;;
21507;SDS011;10915;54.352;9.074;2024-02-21T01:51:29;37.50;;;10.80;;
21507;SDS011;10915;54.352;9.074;2024-02-21T01:53:55;37.10;;;10.77;;
21507;SDS011;10915;54.352;9.074;2024-02-21T01:56:23;26.70;;;9.20;;
21507;SDS011;10915;54.352;9.074;2024-02-21T01:58:49;25.33;;;9.20;;
21507;SDS011;10915;54.352;9.074;2024-02-21T02:01:16;31.17;;;9.90;;
21507;SDS011;10915;54.352;9.074;2024-02-21T02:03:42;35.20;;;10.60;;
21507;SDS011;10915;54.352;9.074;2024-02-21T02:06:11;37.20;;;11.00;;
21507;SDS011;10915;54.352;9.074;2024-02-21T02:08:37;41.57;;;11.03;;
21507;SDS011;10915;54.352;9.074;2024-02-21T02:11:03;37.83;;;9.17;;
21507;SDS011;10915;54.352;9.074;2024-02-21T02:13:29;37.20;;;9.80;;
21507;SDS011;10915;54.352;9.074;2024-02-21T02:15:55;36.77;;;9.37;;
21507;SDS011;10915;54.352;9.074;2024-02-21T02:18:21;33.43;;;9.43;;
21507;SDS011;10915;54.352;9.074;2024-02-21T02:20:46;44.97;;;10.63;;
21507;SDS011;10915;54.352;9.074;2024-02-21T02:26:10;48.60;;;10.13;;
21507;SDS011;10915;54.352;9.074;2024-02-21T02:28:36;38.03;;;10.00;;
21507;SDS011;10915;54.352;9.074;2024-02-21T02:31:01;34.77;;;9.37;;
21507;SDS011;10915;54.352;9.074;2024-02-21T02:33:27;35.17;;;8.63;;
21507;SDS011;10915;54.352;9.074;2024-02-21T02:35:53;32.73;;;8.30;;
21507;SDS011;10915;54.352;9.074;2024-02-21T02:38:19;38.93;;;8.77;;
21507;SDS011;10915;54.352;9.074;2024-02-21T02:40:44;36.60;;;8.77;;
21507;SDS011;10915;54.352;9.074;2024-02-21T02:43:10;34.73;;;7.70;;
21507;SDS011;10915;54.352;9.074;2024-02-21T02:45:35;33.57;;;8.60;;
21507;SDS011;10915;54.352;9.074;2024-02-21T02:48:01;35.47;;;8.80;;
21507;SDS011;10915;54.352;9.074;2024-02-21T02:50:27;39.57;;;8.83;;
21507;SDS011;10915;54.352;9.074;2024-02-21T02:52:54;32.03;;;9.67;;
21507;SDS011;10915;54.352;9.074;2024-02-21T02:55:20;30.93;;;7.90;;
21507;SDS011;10915;54.352;9.074;2024-02-21T02:57:46;34.53;;;9.23;;
21507;SDS011;10915;54.352;9.074;2024-02-21T03:00:11;34.93;;;8.50;;
21507;SDS011;10915;54.352;9.074;2024-02-21T03:02:38;42.77;;;8.67;;
21507;SDS011;10915;54.352;9.074;2024-02-21T03:05:15;30.90;;;9.27;;
21507;SDS011;10915;54.352;9.074;2024-02-21T03:07:43;29.90;;;8.07;;
21507;SDS011;10915;54.352;9.074;2024-02-21T03:10:09;28.87;;;8.87;;
21507;SDS011;10915;54.352;9.074;2024-02-21T03:12:36;30.83;;;8.13;;
21507;SDS011;10915;54.352;9.074;2024-02-21T03:15:03;28.17;;;7.73;;
21507;SDS011;10915;54.352;9.074;2024-02-21T03:17:30;27.40;;;8.30;;
21507;SDS011;10915;54.352;9.074;2024-02-21T03:19:57;27.17;;;6.97;;
21507;SDS011;10915;54.352;9.074;2024-02-21T03:22:25;34.07;;;8.17;;
21507;SDS011;10915;54.352;9.074;2024-02-21T03:24:52;27.87;;;8.10;;
21507;SDS011;10915;54.352;9.074;2024-02-21T03:27:17;28.83;;;8.50;;
21507;SDS011;10915;54.352;9.074;2024-02-21T03:29:43;31.67;;;8.63;;
21507;SDS011;10915;54.352;9.074;2024-02-21T03:32:09;28.47;;;8.13;;
21507;SDS011;10915;54.352;9.074;2024-02-21T03:34:35;29.17;;;8.43;;
21507;SDS011;10915;54.352;9.074;2024-02-21T03:37:01;32.10;;;8.63;;
21507;SDS011;10915;54.352;9.074;2024-02-21T03:39:26;32.60;;;8.70;;
21507;SDS011;10915;54.352;9.074;2024-02-21T03:41:52;31.23;;;8.40;;
21507;SDS011;10915;54.352;9.074;2024-02-21T03:44:18;37.40;;;9.43;;
21507;SDS011;10915;54.352;9.074;2024-02-21T03:46:44;34.20;;;8.63;;
21507;SDS011;10915;54.352;9.074;2024-02-21T03:49:10;33.37;;;9.10;;
21507;SDS011;10915;54.352;9.074;2024-02-21T03:51:38;37.10;;;9.00;;
21507;SDS011;10915;54.352;9.074;2024-02-21T03:54:05;31.87;;;9.53;;
21507;SDS011;10915;54.352;9.074;2024-02-21T03:56:31;32.50;;;9.03;;
21507;SDS011;10915;54.352;9.074;2024-02-21T03:58:57;35.53;;;9.23;;
21507;SDS011;10915;54.352;9.074;2024-02-21T04:01:23;31.03;;;9.03;;
21507;SDS011;10915;54.352;9.074;2024-02-21T04:03:48;35.47;;;8.37;;
21507;SDS011;10915;54.352;9.074;2024-02-21T04:06:14;35.10;;;9.80;;
21507;SDS011;10915;54.352;9.074;2024-02-21T04:08:40;33.47;;;9.37;;
21507;SDS011;10915;54.352;9.074;2024-02-21T04:11:05;44.40;;;9.53;;
21507;SDS011;10915;54.352;9.074;2024-02-21T04:13:31;31.20;;;8.63;;
21507;SDS011;10915;54.352;9.074;2024-02-21T04:15:56;40.67;;;9.40;;
21507;SDS011;10915;54.352;9.074;2024-02-21T04:18:22;39.07;;;9.73;;
21507;SDS011;10915;54.352;9.074;2024-02-21T04:20:48;41.73;;;9.77;;
21507;SDS011;10915;54.352;9.074;2024-02-21T04:23:13;38.03;;;9.50;;
21507;SDS011;10915;54.352;9.074;2024-02-21T04:25:39;41.90;;;9.80;;
21507;SDS011;10915;54.352;9.074;2024-02-21T04:28:05;35.17;;;8.93;;
21507;SDS011;10915;54.352;9.074;2024-02-21T04:30:30;38.97;;;9.53;;
21507;SDS011;10915;54.352;9.074;2024-02-21T04:32:56;35.50;;;8.60;;
21507;SDS011;10915;54.352;9.074;2024-02-21T04:35:22;34.83;;;9.77;;
21507;SDS011;10915;54.352;9.074;2024-02-21T04:37:49;43.93;;;8.93;;
21507;SDS011;10915;54.352;9.074;2024-02-21T04:40:14;34.57;;;9.37;;
21507;SDS011;10915;54.352;9.074;2024-02-21T04:42:41;36.27;;;8.30;;
21507;SDS011;10915;54.352;9.074;2024-02-21T04:45:07;37.23;;;8.03;;
21507;SDS011;10915;54.352;9.074;2024-02-21T04:47:33;37.37;;;8.73;;
21507;SDS011;10915;54.352;9.074;2024-02-21T04:49:59;35.80;;;7.93;;
21507;SDS011;10915;54.352;9.074;2024-02-21T04:52:25;32.93;;;8.30;;
21507;SDS011;10915;54.352;9.074;2024-02-21T04:54:50;41.20;;;8.93;;
21507;SDS011;10915;54.352;9.074;2024-02-21T04:57:16;39.50;;;8.17;;
21507;SDS011;10915;54.352;9.074;2024-02-21T04:59:45;34.10;;;7.90;;
21507;SDS011;10915;54.352;9.074;2024-02-21T05:02:12;37.13;;;7.93;;
21507;SDS011;10915;54.352;9.074;2024-02-21T05:04:39;37.00;;;8.40;;
21507;SDS011;10915;54.352;9.074;2024-02-21T05:07:06;34.07;;;7.80;;
21507;SDS011;10915;54.352;9.074;2024-02-21T05:09:32;32.13;;;8.30;;
21507;SDS011;10915;54.352;9.074;2024-02-21T05:11:57;37.97;;;8.63;;
21507;SDS011;10915;54.352;9.074;2024-02-21T05:14:26;35.73;;;7.47;;
21507;SDS011;10915;54.352;9.074;2024-02-21T05:16:52;34.17;;;8.07;;
21507;SDS011;10915;54.352;9.074;2024-02-21T05:19:18;37.10;;;8.10;;
21507;SDS011;10915;54.352;9.074;2024-02-21T05:21:43;39.57;;;8.70;;
21507;SDS011;10915;54.352;9.074;2024-02-21T05:24:09;39.53;;;8.00;;
21507;SDS011;10915;54.352;9.074;2024-02-21T05:26:35;44.00;;;9.03;;
21507;SDS011;10915;54.352;9.074;2024-02-21T05:29:00;32.87;;;8.80;;
21507;SDS011;10915;54.352;9.074;2024-02-21T05:31:26;46.10;;;9.07;;
21507;SDS011;10915;54.352;9.074;2024-02-21T05:34:16;36.50;;;8.63;;
21507;SDS011;10915;54.352;9.074;2024-02-21T05:36:42;41.00;;;8.40;;
21507;SDS011;10915;54.352;9.074;2024-02-21T05:39:09;29.27;;;7.93;;
21507;SDS011;10915;54.352;9.074;2024-02-21T05:41:34;52.83;;;8.10;;
21507;SDS011;10915;54.352;9.074;2024-02-21T05:44:00;39.33;;;8.43;;
21507;SDS011;10915;54.352;9.074;2024-02-21T05:46:26;39.47;;;9.40;;
21507;SDS011;10915;54.352;9.074;2024-02-21T05:48:52;44.07;;;9.13;;
21507;SDS011;10915;54.352;9.074;2024-02-21T05:51:17;39.03;;;8.77;;
21507;SDS011;10915;54.352;9.074;2024-02-21T05:53:43;42.13;;;8.33;;
21507;SDS011;10915;54.352;9.074;2024-02-21T05:56:12;38.57;;;8.57;;
21507;SDS011;10915;54.352;9.074;2024-02-21T05:58:38;39.17;;;8.03;;
21507;SDS011;10915;54.352;9.074;2024-02-21T06:01:04;46.17;;;9.07;;
21507;SDS011;10915;54.352;9.074;2024-02-21T06:03:31;42.33;;;8.63;;
21507;SDS011;10915;54.352;9.074;2024-02-21T06:05:57;42.37;;;8.67;;
21507;SDS011;10915;54.352;9.074;2024-02-21T06:08:23;38.10;;;7.73;;
21507;SDS011;10915;54.352;9.074;2024-02-21T06:10:49;42.23;;;9.87;;
21507;SDS011;10915;54.352;9.074;2024-02-21T06:13:19;46.57;;;9.23;;
21507;SDS011;10915;54.352;9.074;2024-02-21T06:15:48;41.37;;;8.40;;
21507;SDS011;10915;54.352;9.074;2024-02-21T06:18:15;57.33;;;9.27;;
21507;SDS011;10915;54.352;9.074;2024-02-21T06:20:44;39.80;;;9.80;;
21507;SDS011;10915;54.352;9.074;2024-02-21T06:23:11;36.63;;;9.40;;
21507;SDS011;10915;54.352;9.074;2024-02-21T06:25:45;34.93;;;8.63;;
21507;SDS011;10915;54.352;9.074;2024-02-21T06:28:12;49.37;;;8.33;;
21507;SDS011;10915;54.352;9.074;2024-02-21T06:30:39;38.40;;;9.07;;
21507;SDS011;10915;54.352;9.074;2024-02-21T06:33:06;45.53;;;8.70;;
21507;SDS011;10915;54.352;9.074;2024-02-21T06:35:33;47.77;;;9.97;;
21507;SDS011;10915;54.352;9.074;2024-02-21T06:37:59;44.53;;;9.17;;
21507;SDS011;10915;54.352;9.074;2024-02-21T06:40:24;46.27;;;9.20;;
21507;SDS011;10915;54.352;9.074;2024-02-21T06:42:50;40.00;;;8.80;;
21507;SDS011;10915;54.352;9.074;2024-02-21T06:45:16;40.00;;;9.10;;
21507;SDS011;10915;54.352;9.074;2024-02-21T06:47:42;57.20;;;10.93;;
21507;SDS011;10915;54.352;9.074;2024-02-21T06:50:08;47.43;;;9.20;;
21507;SDS011;10915;54.352;9.074;2024-02-21T06:52:35;38.97;;;10.03;;
21507;SDS011;10915;54.352;9.074;2024-02-21T06:55:01;43.63;;;8.43;;
21507;SDS011;10915;54.352;9.074;2024-02-21T06:57:28;44.93;;;9.30;;
21507;SDS011;10915;54.352;9.074;2024-02-21T06:59:54;46.97;;;9.33;;
21507;SDS011;10915;54.352;9.074;2024-02-21T07:02:21;43.37;;;9.40;;
21507;SDS011;10915;54.352;9.074;2024-02-21T07:04:46;35.97;;;8.63;;
21507;SDS011;10915;54.352;9.074;2024-02-21T07:07:12;49.73;;;9.83;;
21507;SDS011;10915;54.352;9.074;2024-02-21T07:09:38;44.33;;;9.80;;
21507;SDS011;10915;54.352;9.074;2024-02-21T07:12:04;45.57;;;9.07;;
21507;SDS011;10915;54.352;9.074;2024-02-21T07:14:33;40.67;;;8.53;;
21507;SDS011;10915;54.352;9.074;2024-02-21T07:17:01;42.10;;;9.27;;
21507;SDS011;10915;54.352;9.074;2024-02-21T07:19:26;41.40;;;8.17;;
21507;SDS011;10915;54.352;9.074;2024-02-21T07:21:52;47.57;;;8.93;;
21507;SDS011;10915;54.352;9.074;2024-02-21T07:24:18;46.20;;;9.60;;
21507;SDS011;10915;54.352;9.074;2024-02-21T07:26:44;42.47;;;10.40;;
21507;SDS011;10915;54.352;9.074;2024-02-21T07:29:09;48.67;;;11.67;;
21507;SDS011;10915;54.352;9.074;2024-02-21T07:31:40;42.70;;;11.30;;
21507;SDS011;10915;54.352;9.074;2024-02-21T07:34:06;39.47;;;10.57;;
21507;SDS011;10915;54.352;9.074;2024-02-21T07:36:32;63.43;;;20.10;;
21507;SDS011;10915;54.352;9.074;2024-02-21T07:38:57;44.33;;;12.43;;
21507;SDS011;10915;54.352;9.074;2024-02-21T07:41:26;46.87;;;12.57;;
21507;SDS011;10915;54.352;9.074;2024-02-21T07:43:55;55.73;;;14.63;;
21507;SDS011;10915;54.352;9.074;2024-02-21T07:46:20;51.30;;;14.90;;
21507;SDS011;10915;54.352;9.074;2024-02-21T07:48:46;45.30;;;12.57;;
21507;SDS011;10915;54.352;9.074;2024-02-21T07:51:12;46.93;;;11.67;;
21507;SDS011;10915;54.352;9.074;2024-02-21T07:53:41;32.37;;;11.07;;
21507;SDS011;10915;54.352;9.074;2024-02-21T07:56:13;41.07;;;11.37;;
21507;SDS011;10915;54.352;9.074;2024-02-21T07:58:40;46.83;;;18.63;;
21507;SDS011;10915;54.352;9.074;2024-02-21T08:01:06;42.47;;;12.33;;
21507;SDS011;10915;54.352;9.074;2024-02-21T08:03:32;42.23;;;11.17;;
21507;SDS011;10915;54.352;9.074;2024-02-21T08:05:58;31.57;;;9.00;;
21507;SDS011;10915;54.352;9.074;2024-02-21T08:08:23;38.13;;;9.23;;
21507;SDS011;10915;54.352;9.074;2024-02-21T08:10:50;41.47;;;9.57;;
21507;SDS011;10915;54.352;9.074;2024-02-21T08:13:16;40.30;;;8.90;;
21507;SDS011;10915;54.352;9.074;2024-02-21T08:15:41;42.87;;;9.57;;
21507;SDS011;10915;54.352;9.074;2024-02-21T08:18:08;30.67;;;6.97;;
21507;SDS011;10915;54.352;9.074;2024-02-21T08:20:34;31.67;;;8.20;;
21507;SDS011;10915;54.352;9.074;2024-02-21T08:23:00;35.10;;;7.87;;
21507;SDS011;10915;54.352;9.074;2024-02-21T08:25:26;34.67;;;7.07;;
21507;SDS011;10915;54.352;9.074;2024-02-21T08:27:57;33.77;;;7.80;;
21507;SDS011;10915;54.352;9.074;2024-02-21T08:30:23;27.57;;;7.07;;
21507;SDS011;10915;54.352;9.074;2024-02-21T08:32:49;34.97;;;7.40;;
21507;SDS011;10915;54.352;9.074;2024-02-21T08:35:15;33.43;;;8.10;;
21507;SDS011;10915;54.352;9.074;2024-02-21T08:37:43;30.77;;;7.63;;
21507;SDS011;10915;54.352;9.074;2024-02-21T08:40:09;26.60;;;5.87;;
21507;SDS011;10915;54.352;9.074;2024-02-21T08:42:35;32.30;;;7.40;;
21507;SDS011;10915;54.352;9.074;2024-02-21T08:45:02;34.80;;;6.33;;
21507;SDS011;10915;54.352;9.074;2024-02-21T08:47:28;31.93;;;7.50;;
21507;SDS011;10915;54.352;9.074;2024-02-21T08:49:53;25.23;;;6.57;;
21507;SDS011;10915;54.352;9.074;2024-02-21T08:52:19;28.87;;;7.03;;
21507;SDS011;10915;54.352;9.074;2024-02-21T08:54:45;28.80;;;6.30;;
21507;SDS011;10915;54.352;9.074;2024-02-21T08:57:10;32.07;;;6.60;;
21507;SDS011;10915;54.352;9.074;2024-02-21T08:59:36;32.37;;;6.87;;
21507;SDS011;10915;54.352;9.074;2024-02-21T09:02:01;26.70;;;6.07;;
21507;SDS011;10915;54.352;9.074;2024-02-21T09:04:28;31.60;;;6.93;;
21507;SDS011;10915;54.352;9.074;2024-02-21T09:06:54;34.57;;;6.90;;
21507;SDS011;10915;54.352;9.074;2024-02-21T09:09:20;24.97;;;6.27;;
21507;SDS011;10915;54.352;9.074;2024-02-21T09:11:46;29.67;;;6.33;;
21507;SDS011;10915;54.352;9.074;2024-02-21T09:14:11;25.73;;;5.77;;
21507;SDS011;10915;54.352;9.074;2024-02-21T09:16:37;27.90;;;6.43;;
21507;SDS011;10915;54.352;9.074;2024-02-21T09:19:02;25.63;;;5.80;;
21507;SDS011;10915;54.352;9.074;2024-02-21T09:21:28;28.80;;;6.50;;
21507;SDS011;10915;54.352;9.074;2024-02-21T09:23:53;18.57;;;5.33;;
21507;SDS011;10915;54.352;9.074;2024-02-21T09:26:19;24.53;;;5.60;;
21507;SDS011;10915;54.352;9.074;2024-02-21T09:28:45;30.07;;;6.37;;
21507;SDS011;10915;54.352;9.074;2024-02-21T09:31:11;19.37;;;4.57;;
21507;SDS011;10915;54.352;9.074;2024-02-21T09:33:36;22.13;;;4.87;;
21507;SDS011;10915;54.352;9.074;2024-02-21T09:36:02;23.50;;;5.17;;
21507;SDS011;10915;54.352;9.074;2024-02-21T09:38:30;24.53;;;5.47;;
21507;SDS011;10915;54.352;9.074;2024-02-21T09:41:03;28.20;;;5.83;;
21507;SDS011;10915;54.352;9.074;2024-02-21T09:43:29;19.13;;;4.30;;
21507;SDS011;10915;54.352;9.074;2024-02-21T09:45:55;23.80;;;5.67;;
21507;SDS011;10915;54.352;9.074;2024-02-21T09:48:31;17.80;;;5.13;;
21507;SDS011;10915;54.352;9.074;2024-02-21T09:51:05;21.60;;;4.77;;
21507;SDS011;10915;54.352;9.074;2024-02-21T09:53:34;20.50;;;5.47;;
21507;SDS011;10915;54.352;9.074;2024-02-21T09:56:02;20.60;;;4.20;;
21507;SDS011;10915;54.352;9.074;2024-02-21T09:58:30;20.53;;;4.57;;
21507;SDS011;10915;54.352;9.074;2024-02-21T10:00:55;18.67;;;3.93;;
21507;SDS011;10915;54.352;9.074;2024-02-21T10:03:23;19.37;;;4.57;;
21507;SDS011;10915;54.352;9.074;2024-02-21T10:05:49;19.67;;;4.47;;
21507;SDS011;10915;54.352;9.074;2024-02-21T10:08:18;15.63;;;4.33;;
21507;SDS011;10915;54.352;9.074;2024-02-21T10:10:45;15.80;;;4.50;;
21507;SDS011;10915;54.352;9.074;2024-02-21T10:13:21;22.50;;;5.40;;
21507;SDS011;10915;54.352;9.074;2024-02-21T10:16:01;24.03;;;4.93;;
21507;SDS011;10915;54.352;9.074;2024-02-21T10:18:31;19.00;;;4.67;;
21507;SDS011;10915;54.352;9.074;2024-02-21T10:21:04;24.50;;;5.10;;
21507;SDS011;10915;54.352;9.074;2024-02-21T10:23:48;26.40;;;5.20;;
21507;SDS011;10915;54.352;9.074;2024-02-21T10:26:16;26.70;;;5.57;;
21507;SDS011;10915;54.352;9.074;2024-02-21T10:28:42;24.03;;;5.63;;
21507;SDS011;10915;54.352;9.074;2024-02-21T10:31:10;19.87;;;5.00;;
21507;SDS011;10915;54.352;9.074;2024-02-21T10:33:36;23.33;;;5.33;;
21507;SDS011;10915;54.352;9.074;2024-02-21T10:36:09;19.13;;;5.10;;
21507;SDS011;10915;54.352;9.074;2024-02-21T10:38:39;15.33;;;4.40;;
21507;SDS011;10915;54.352;9.074;2024-02-21T10:41:05;18.50;;;4.83;;
21507;SDS011;10915;54.352;9.074;2024-02-21T10:43:39;23.40;;;5.20;;
21507;SDS011;10915;54.352;9.074;2024-02-21T10:46:08;22.60;;;4.97;;
21507;SDS011;10915;54.352;9.074;2024-02-21T10:48:42;24.03;;;4.80;;
21507;SDS011;10915;54.352;9.074;2024-02-21T10:53:50;27.23;;;6.60;;
21507;SDS011;10915;54.352;9.074;2024-02-21T10:56:42;26.50;;;7.70;;
21507;SDS011;10915;54.352;9.074;2024-02-21T10:59:08;32.13;;;9.67;;
21507;SDS011;10915;54.352;9.074;2024-02-21T11:01:34;28.67;;;10.30;;
21507;SDS011;10915;54.352;9.074;2024-02-21T11:04:07;31.10;;;10.33;;
21507;SDS011;10915;54.352;9.074;2024-02-21T11:06:35;35.63;;;12.97;;
21507;SDS011;10915;54.352;9.074;2024-02-21T11:09:03;29.53;;;8.73;;
21507;SDS011;10915;54.352;9.074;2024-02-21T11:11:30;39.30;;;12.60;;
21507;SDS011;10915;54.352;9.074;2024-02-21T11:16:34;30.40;;;9.73;;
21507;SDS011;10915;54.352;9.074;2024-02-21T11:19:08;38.80;;;7.40;;
21507;SDS011;10915;54.352;9.074;2024-02-21T11:21:43;35.17;;;7.10;;
21507;SDS011;10915;54.352;9.074;2024-02-21T11:24:09;34.27;;;7.33;;
21507;SDS011;10915;54.352;9.074;2024-02-21T11:26:36;32.77;;;7.17;;
21507;SDS011;10915;54.352;9.074;2024-02-21T11:29:03;36.47;;;7.83;;
21507;SDS011;10915;54.352;9.074;2024-02-21T11:31:43;28.00;;;7.03;;
21507;SDS011;10915;54.352;9.074;2024-02-21T11:34:11;24.03;;;6.83;;
21507;SDS011;10915;54.352;9.074;2024-02-21T11:36:49;29.27;;;7.37;;
21507;SDS011;10915;54.352;9.074;2024-02-21T11:39:23;25.87;;;6.70;;
21507;SDS011;10915;54.352;9.074;2024-02-21T11:42:01;23.23;;;6.93;;
21507;SDS011;10915;54.352;9.074;2024-02-21T11:44:26;17.30;;;6.57;;
21507;SDS011;10915;54.352;9.074;2024-02-21T11:46:52;17.40;;;7.03;;
21507;SDS011;10915;54.352;9.074;2024-02-21T11:49:18;15.60;;;6.40;;
21507;SDS011;10915;54.352;9.074;2024-02-21T11:51:43;18.47;;;7.00;;
21507;SDS011;10915;54.352;9.074;2024-02-21T11:54:10;14.77;;;6.30;;
21507;SDS011;10915;54.352;9.074;2024-02-21T11:56:38;11.80;;;5.50;;
21507;SDS011;10915;54.352;9.074;2024-02-21T11:59:04;12.47;;;5.97;;
21507;SDS011;10915;54.352;9.074;2024-02-21T12:01:31;14.20;;;6.13;;
21507;SDS011;10915;54.352;9.074;2024-02-21T12:03:57;12.67;;;6.57;;
21507;SDS011;10915;54.352;9.074;2024-02-21T12:06:22;13.63;;;6.63;;
21507;SDS011;10915;54.352;9.074;2024-02-21T12:08:48;18.70;;;7.87;;
21507;SDS011;10915;54.352;9.074;2024-02-21T12:13:44;13.97;;;9.10;;
21507;SDS011;10915;54.352;9.074;2024-02-21T12:16:10;14.17;;;8.77;;
21507;SDS011;10915;54.352;9.074;2024-02-21T12:18:36;15.40;;;9.10;;
21507;SDS011;10915;54.352;9.074;2024-02-21T12:21:01;17.70;;;9.10;;
21507;SDS011;10915;54.352;9.074;2024-02-21T12:23:29;14.00;;;8.90;;
21507;SDS011;10915;54.352;9.074;2024-02-21T12:25:55;12.93;;;7.73;;
21507;SDS011;10915;54.352;9.074;2024-02-21T12:28:21;10.50;;;6.77;;
21507;SDS011;10915;54.352;9.074;2024-02-21T12:30:47;13.87;;;7.67;;
21507;SDS011;10915;54.352;9.074;2024-02-21T12:33:12;17.50;;;7.97;;
21507;SDS011;10915;54.352;9.074;2024-02-21T12:35:41;15.73;;;9.17;;
21507;SDS011;10915;54.352;9.074;2024-02-21T12:38:07;14.17;;;9.23;;
21507;SDS011;10915;54.352;9.074;2024-02-21T12:40:32;22.57;;;10.37;;
21507;SDS011;10915;54.352;9.074;2024-02-21T12:42:59;25.47;;;10.67;;
21507;SDS011;10915;54.352;9.074;2024-02-21T12:45:27;18.57;;;10.30;;
21507;SDS011;10915;54.352;9.074;2024-02-21T12:47:53;21.20;;;10.47;;
21507;SDS011;10915;54.352;9.074;2024-02-21T12:50:19;21.27;;;10.70;;
21507;SDS011;10915;54.352;9.074;2024-02-21T12:52:45;19.30;;;10.53;;
21507;SDS011;10915;54.352;9.074;2024-02-21T12:55:11;24.80;;;10.20;;
21507;SDS011;10915;54.352;9.074;2024-02-21T12:57:38;21.13;;;10.73;;
21507;SDS011;10915;54.352;9.074;2024-02-21T13:00:05;21.30;;;9.53;;
21507;SDS011;10915;54.352;9.074;2024-02-21T13:02:33;19.33;;;10.63;;
21507;SDS011;10915;54.352;9.074;2024-02-21T13:04:59;23.80;;;10.37;;
21507;SDS011;10915;54.352;9.074;2024-02-21T13:07:27;19.03;;;10.03;;
21507;SDS011;10915;54.352;9.074;2024-02-21T13:09:53;19.27;;;10.93;;
21507;SDS011;10915;54.352;9.074;2024-02-21T13:12:19;21.17;;;11.07;;
21507;SDS011;10915;54.352;9.074;2024-02-21T13:14:45;22.47;;;11.30;;
21507;SDS011;10915;54.352;9.074;2024-02-21T13:17:10;23.90;;;11.73;;
21507;SDS011;10915;54.352;9.074;2024-02-21T13:19:36;23.87;;;12.20;;
21507;SDS011;10915;54.352;9.074;2024-02-21T13:22:01;18.67;;;13.30;;
21507;SDS011;10915;54.352;9.074;2024-02-21T13:24:27;26.83;;;15.10;;
21507;SDS011;10915;54.352;9.074;2024-02-21T13:26:54;22.67;;;14.77;;
21507;SDS011;10915;54.352;9.074;2024-02-21T13:29:20;29.17;;;17.17;;
21507;SDS011;10915;54.352;9.074;2024-02-21T13:31:45;28.33;;;17.50;;
21507;SDS011;10915;54.352;9.074;2024-02-21T13:34:11;27.93;;;16.70;;
21507;SDS011;10915;54.352;9.074;2024-02-21T13:36:37;28.73;;;17.63;;
21507;SDS011;10915;54.352;9.074;2024-02-21T13:39:02;27.40;;;17.43;;
21507;SDS011;10915;54.352;9.074;2024-02-21T13:41:30;25.23;;;18.90;;
21507;SDS011;10915;54.352;9.074;2024-02-21T13:43:56;26.63;;;18.30;;
21507;SDS011;10915;54.352;9.074;2024-02-21T13:46:21;30.03;;;19.27;;
21507;SDS011;10915;54.352;9.074;2024-02-21T13:48:47;30.90;;;20.03;;
21507;SDS011;10915;54.352;9.074;2024-02-21T13:51:13;30.20;;;19.70;;
21507;SDS011;10915;54.352;9.074;2024-02-21T13:53:39;33.73;;;21.57;;
21507;SDS011;10915;54.352;9.074;2024-02-21T13:56:04;32.07;;;20.57;;
21507;SDS011;10915;54.352;9.074;2024-02-21T13:58:30;32.67;;;22.47;;
21507;SDS011;10915;54.352;9.074;2024-02-21T14:00:56;30.93;;;22.27;;
21507;SDS011;10915;54.352;9.074;2024-02-21T14:03:22;32.83;;;22.53;;
21507;SDS011;10915;54.352;9.074;2024-02-21T14:05:47;32.17;;;22.83;;
21507;SDS011;10915;54.352;9.074;2024-02-21T14:08:16;31.77;;;23.33;;
21507;SDS011;10915;54.352;9.074;2024-02-21T14:10:41;34.50;;;22.93;;
21507;SDS011;10915;54.352;9.074;2024-02-21T14:13:07;35.47;;;23.03;;
21507;SDS011;10915;54.352;9.074;2024-02-21T14:15:33;31.67;;;22.60;;
21507;SDS011;10915;54.352;9.074;2024-02-21T14:17:58;30.43;;;22.70;;
21507;SDS011;10915;54.352;9.074;2024-02-21T14:20:24;32.87;;;23.33;;
21507;SDS011;10915;54.352;9.074;2024-02-21T14:22:49;40.17;;;22.40;;
21507;SDS011;10915;54.352;9.074;2024-02-21T14:25:15;34.17;;;22.10;;
21507;SDS011;10915;54.352;9.074;2024-02-21T14:27:41;30.83;;;22.50;;
21507;SDS011;10915;54.352;9.074;2024-02-21T14:30:08;28.73;;;20.30;;
21507;SDS011;10915;54.352;9.074;2024-02-21T14:32:35;26.03;;;19.93;;
21507;SDS011;10915;54.352;9.074;2024-02-21T14:35:01;32.47;;;20.27;;
21507;SDS011;10915;54.352;9.074;2024-02-21T14:37:27;28.47;;;20.47;;
21507;SDS011;10915;54.352;9.074;2024-02-21T14:39:53;28.67;;;19.50;;